Gridley, IL

6:45 AM CDT on July 04, 2015 (GMT -0500)
North West corner of El Paso IL | | Change Station
CLOSE
Current Station
Personal Weather Station
Location: El Paso, IL
Elevation: 738 ft
Nearby Weather Stations

Elev 738 ft 40.74 °N, 89.02 °W | Updated 9 minutes ago

Clear
Clear
60.8 °F
Feels Like 60.8 °F
N
0.0
Wind Variable Wind from SSE

Today
High -- | Low -- °F
--% Chance of Precip.
Yesterday
High -- | Low -- °F
Precip. -- in
5:29 AM 8:30 PM
Waning Gibbous, 93% visible
Pressure 29.99 in
Visibility 4.0 miles
Clouds Clear
Dew Point 60 °F
Humidity 99%
Rainfall 0.00 in
Snow Depth Not available.
UV 1 out of 12
Pollen 4.10 out of 12
Air Quality Not available.
Flu Activity Not available.
METAR KPNT 041135Z AUTO 00000KT 4SM BR CLR 15/15 A2999 RMK AO2 T01470146

More Conditions Fewer Conditions

Pressure 29.99 in
Visibility 4.0 miles
Clouds Clear
Dew Point 60 °F
Humidity 99%
Rainfall 0.00 in
Snow Depth Not available.
UV 1 out of 12
Pollen 4.10 out of 12
Air Quality Not available.
Flu Activity Not available.
METAR KPNT 041135Z AUTO 00000KT 4SM BR CLR 15/15 A2999 RMK AO2 T01470146

More Conditions Fewer Conditions

10-Day Weather Forecast

×

Almanac

Astronomy

Jul. 04, 2015 Rise Set
Actual Time
Civil Twilight
Nautical Twilight
Astronomical Twilight
Moon
Length of Visible Light
Length of Day
Tomorrow will be .
, % of the Moon is Illuminated

Today's Extremes

State Highs State Lows

Community

WunderPhotos

Upload Photos

1,834,939 photos uploaded!

WunderBlogs® & News

Nearby

Air Quality

  Air Quality AQ Index Pollutant
Not available.

Snow Depth

Station Depth Elevation

Earthquake Activity

City Distance Mag. Time & Date
Minimum magnitude displayed is 2.5.

Coastal Water Temperatures

Place Temperature

Stations

Nearby Weather Stations

Station Location Temp. Windchill Dew Point Humidity Wind Precip. Elev Updated Type